createdAt,value
2022-07-30T00:00:10.154Z,12.57
2022-07-30T00:02:36.795Z,12.75
2022-07-30T00:05:05.410Z,11.70
2022-07-30T00:07:31.881Z,10.63
2022-07-30T00:09:58.381Z,11.23
2022-07-30T00:12:24.833Z,11.82
2022-07-30T00:14:51.344Z,14.15
2022-07-30T00:17:17.809Z,12.20
2022-07-30T00:19:45.323Z,12.73
2022-07-30T00:22:11.749Z,13.00
2022-07-30T00:24:38.201Z,11.85
2022-07-30T00:27:04.653Z,12.15
2022-07-30T00:29:31.704Z,14.88
2022-07-30T00:31:58.104Z,13.63
2022-07-30T00:34:24.540Z,14.07
2022-07-30T00:36:51.104Z,13.35
2022-07-30T00:39:17.519Z,14.10
2022-07-30T00:41:54.787Z,15.98
2022-07-30T00:44:21.414Z,17.42
2022-07-30T00:46:47.839Z,18.67
2022-07-30T00:49:14.379Z,16.33
2022-07-30T00:51:40.922Z,17.42
2022-07-30T00:54:07.433Z,20.35
2022-07-30T00:56:33.883Z,18.45
2022-07-30T00:59:00.326Z,16.83
2022-07-30T01:01:26.807Z,15.57
2022-07-30T01:03:53.379Z,15.75
2022-07-30T01:06:19.913Z,18.42
2022-07-30T01:08:46.380Z,15.35
2022-07-30T01:11:12.868Z,18.52
2022-07-30T01:13:39.320Z,15.80
2022-07-30T01:16:05.894Z,16.75
2022-07-30T01:18:52.512Z,16.45
2022-07-30T01:21:21.763Z,16.73
2022-07-30T01:23:50.665Z,20.92
2022-07-30T01:26:19.641Z,18.08
2022-07-30T01:28:49.436Z,18.35
2022-07-30T01:31:16.267Z,17.95
2022-07-30T01:33:45.325Z,20.13
2022-07-30T01:36:14.747Z,17.35
2022-07-30T01:38:43.590Z,19.67
2022-07-30T01:41:11.140Z,19.23
2022-07-30T01:43:38.596Z,16.17
2022-07-30T01:46:06.108Z,17.27
2022-07-30T01:48:35.340Z,14.88
2022-07-30T01:51:04.376Z,15.65
2022-07-30T01:53:32.915Z,15.15
2022-07-30T01:56:00.563Z,16.25
2022-07-30T01:58:29.498Z,15.27
2022-07-30T02:00:58.299Z,16.02
2022-07-30T02:03:28.061Z,18.27
2022-07-30T02:05:59.319Z,17.75
2022-07-30T02:08:40.146Z,15.50
2022-07-30T02:11:12.277Z,14.57
2022-07-30T02:13:45.378Z,14.40
2022-07-30T02:16:22.584Z,14.60
2022-07-30T02:18:52.131Z,14.77
2022-07-30T02:21:20.560Z,14.52
2022-07-30T02:23:49.011Z,17.20
2022-07-30T02:26:18.785Z,16.48
2022-07-30T02:28:48.403Z,16.02
2022-07-30T02:31:18.105Z,17.95
2022-07-30T02:33:48.540Z,18.15
2022-07-30T02:36:17.197Z,16.67
2022-07-30T02:38:44.336Z,16.10
2022-07-30T02:41:11.855Z,22.63
2022-07-30T02:43:40.899Z,18.90
2022-07-30T02:46:07.815Z,19.30
2022-07-30T02:48:35.588Z,18.83
2022-07-30T02:51:03.369Z,18.27
2022-07-30T02:53:31.073Z,20.67
2022-07-30T02:55:57.655Z,18.17
2022-07-30T02:58:25.676Z,17.65
2022-07-30T03:00:53.976Z,16.10
2022-07-30T03:03:21.025Z,17.00
2022-07-30T03:05:50.115Z,19.77
2022-07-30T03:08:19.321Z,18.92
2022-07-30T03:10:47.109Z,19.35
2022-07-30T03:13:13.927Z,17.17
2022-07-30T03:15:46.800Z,16.08
2022-07-30T03:18:14.817Z,19.17
2022-07-30T03:20:45.208Z,17.13
2022-07-30T03:23:12.543Z,16.90
2022-07-30T03:25:39.902Z,19.10
2022-07-30T03:28:06.974Z,17.70
2022-07-30T03:30:34.683Z,16.40
2022-07-30T03:33:01.424Z,16.05
2022-07-30T03:35:31.250Z,14.40
2022-07-30T03:37:58.734Z,15.02
2022-07-30T03:40:25.361Z,14.65
2022-07-30T03:42:52.504Z,16.83
2022-07-30T03:45:20.106Z,17.20
2022-07-30T03:47:46.671Z,17.25
2022-07-30T03:50:13.925Z,18.23
2022-07-30T03:52:41.367Z,14.23
2022-07-30T03:55:09.793Z,15.20
2022-07-30T03:57:37.030Z,19.85
2022-07-30T04:00:08.583Z,15.77
2022-07-30T04:02:45.593Z,14.70
2022-07-30T04:05:13.345Z,15.40
2022-07-30T04:07:40.638Z,14.90
2022-07-30T04:10:11.597Z,16.45
2022-07-30T04:12:38.117Z,17.83
2022-07-30T04:16:38.199Z,18.13
2022-07-30T04:17:54.232Z,17.52
2022-07-30T04:20:24.094Z,19.60
2022-07-30T04:22:51.426Z,22.70
2022-07-30T04:25:24.405Z,20.27
2022-07-30T04:28:02.838Z,24.35
2022-07-30T04:30:30.598Z,32.05
2022-07-30T04:32:57.129Z,19.80
2022-07-30T04:35:49.882Z,20.33
2022-07-30T04:38:18.164Z,22.92
2022-07-30T04:40:44.660Z,22.48
2022-07-30T04:43:11.092Z,24.98
2022-07-30T04:45:39.382Z,24.20
2022-07-30T04:48:06.489Z,25.67
2022-07-30T04:50:34.069Z,19.13
2022-07-30T04:53:01.137Z,22.60
2022-07-30T04:55:27.886Z,23.67
2022-07-30T04:57:55.079Z,21.27
2022-07-30T05:00:21.976Z,24.70
2022-07-30T05:02:49.619Z,24.17
2022-07-30T05:05:16.502Z,21.25
2022-07-30T05:07:44.015Z,19.58
2022-07-30T05:10:11.616Z,23.33
2022-07-30T05:12:38.355Z,21.40
2022-07-30T05:15:06.348Z,24.02
2022-07-30T05:17:33.029Z,22.15
2022-07-30T05:19:59.536Z,21.88
2022-07-30T05:22:29.916Z,26.05
2022-07-30T05:24:59.412Z,20.10
2022-07-30T05:27:25.895Z,21.02
2022-07-30T05:29:52.391Z,23.30
2022-07-30T05:32:22.636Z,24.88
2022-07-30T05:34:53.679Z,20.07
2022-07-30T05:37:20.201Z,21.08
2022-07-30T05:40:02.272Z,22.30
2022-07-30T05:42:30.034Z,24.15
2022-07-30T05:44:56.505Z,23.65
2022-07-30T05:47:23.078Z,23.90
2022-07-30T05:49:49.607Z,18.83
2022-07-30T05:52:16.046Z,22.52
2022-07-30T05:54:42.553Z,24.10
2022-07-30T05:57:09.004Z,25.42
2022-07-30T05:59:35.495Z,27.88
2022-07-30T06:02:03.409Z,26.92
2022-07-30T06:04:30.127Z,27.10
2022-07-30T06:06:56.593Z,25.90
2022-07-30T06:09:36.959Z,23.20
2022-07-30T06:12:04.345Z,23.52
2022-07-30T06:14:32.211Z,31.85
2022-07-30T06:16:59.202Z,27.42
2022-07-30T06:19:26.252Z,24.00
2022-07-30T06:22:06.287Z,25.00
2022-07-30T06:24:34.115Z,23.73
2022-07-30T06:27:00.981Z,25.92
2022-07-30T06:29:27.670Z,25.98
2022-07-30T06:31:54.121Z,23.33
2022-07-30T06:34:20.543Z,23.85
2022-07-30T06:36:47.194Z,23.63
2022-07-30T06:39:13.778Z,21.95
2022-07-30T06:41:41.599Z,24.00
2022-07-30T06:44:08.033Z,22.58
2022-07-30T06:46:34.691Z,21.02
2022-07-30T06:49:01.846Z,20.17
2022-07-30T06:51:28.372Z,20.08
2022-07-30T06:53:54.838Z,21.92
2022-07-30T06:56:21.263Z,19.00
2022-07-30T06:58:47.805Z,22.27
2022-07-30T07:01:14.546Z,17.08
2022-07-30T07:03:41.100Z,18.67
2022-07-30T07:06:07.824Z,16.05
2022-07-30T07:08:36.649Z,17.02
2022-07-30T07:11:03.693Z,14.20
2022-07-30T07:13:30.160Z,14.02
2022-07-30T07:15:57.430Z,18.73
2022-07-30T07:18:24.022Z,14.13
2022-07-30T07:20:50.440Z,15.07
2022-07-30T07:23:19.605Z,16.40
2022-07-30T07:25:47.274Z,13.68
2022-07-30T07:28:13.901Z,12.35
2022-07-30T07:30:44.079Z,11.10
2022-07-30T07:33:10.710Z,11.88
2022-07-30T07:35:48.370Z,14.50
2022-07-30T07:38:19.282Z,10.15
2022-07-30T07:40:46.065Z,9.43
2022-07-30T07:43:12.635Z,8.50
2022-07-30T07:45:39.455Z,8.50
2022-07-30T07:48:06.121Z,9.30
2022-07-30T07:50:32.707Z,10.82
2022-07-30T07:52:59.142Z,9.43
2022-07-30T07:55:25.900Z,8.15
2022-07-30T07:57:52.779Z,11.25
2022-07-30T08:00:20.594Z,7.80
2022-07-30T08:02:47.755Z,9.23
2022-07-30T08:05:14.725Z,9.30
2022-07-30T08:07:42.095Z,10.02
2022-07-30T08:10:09.372Z,9.20
2022-07-30T08:12:36.121Z,8.60
2022-07-30T08:15:03.521Z,9.98
2022-07-30T08:17:30.098Z,9.48
2022-07-30T08:20:00.650Z,10.45
2022-07-30T08:22:27.677Z,10.07
2022-07-30T08:24:54.165Z,8.98
2022-07-30T08:27:20.679Z,7.85
2022-07-30T08:29:47.108Z,9.93
2022-07-30T08:32:13.554Z,11.32
2022-07-30T08:34:39.964Z,10.35
2022-07-30T08:37:06.395Z,13.57
2022-07-30T08:39:32.806Z,11.27
2022-07-30T08:42:03.143Z,10.77
2022-07-30T08:44:30.408Z,10.35
2022-07-30T08:46:58.660Z,11.68
2022-07-30T08:49:26.009Z,11.18
2022-07-30T08:51:52.743Z,11.52
2022-07-30T08:54:19.433Z,13.18
2022-07-30T08:56:46.113Z,12.63
2022-07-30T08:59:13.168Z,10.65
2022-07-30T09:01:39.595Z,13.70
2022-07-30T09:06:37.577Z,11.93
2022-07-30T09:09:04.112Z,12.40
2022-07-30T09:11:30.563Z,10.70
2022-07-30T09:14:08.616Z,8.65
2022-07-30T09:16:35.495Z,9.73
2022-07-30T09:19:15.155Z,8.00
2022-07-30T09:21:41.824Z,10.77
2022-07-30T09:24:12.511Z,11.13
2022-07-30T09:26:59.400Z,9.23
2022-07-30T09:29:28.045Z,6.63
2022-07-30T09:32:07.353Z,10.23
2022-07-30T09:34:38.219Z,13.00
2022-07-30T09:37:24.904Z,9.98
2022-07-30T09:39:58.976Z,9.57
2022-07-30T09:42:27.842Z,8.88
2022-07-30T09:45:06.257Z,7.38
2022-07-30T09:47:38.512Z,7.85
2022-07-30T09:50:29.206Z,7.78
2022-07-30T09:53:06.519Z,8.88
2022-07-30T09:55:36.042Z,8.15
2022-07-30T09:58:08.089Z,6.85
2022-07-30T10:00:36.495Z,5.63
2022-07-30T10:03:33.184Z,8.25
2022-07-30T10:06:03.618Z,5.10
2022-07-30T10:08:40.806Z,5.18
2022-07-30T10:11:10.151Z,6.90
2022-07-30T10:13:37.103Z,5.32
2022-07-30T10:16:03.575Z,5.82
2022-07-30T10:18:31.064Z,4.38
2022-07-30T10:20:57.858Z,4.13
2022-07-30T10:23:29.534Z,5.70
2022-07-30T10:26:00.444Z,5.65
2022-07-30T10:28:31.431Z,5.53
2022-07-30T10:31:46.516Z,7.15
2022-07-30T10:33:49.952Z,5.38
2022-07-30T10:36:16.833Z,5.93
2022-07-30T10:38:44.739Z,6.63
2022-07-30T10:41:42.915Z,7.85
2022-07-30T10:44:38.921Z,7.00
2022-07-30T10:47:10.637Z,5.82
2022-07-30T10:49:41.168Z,5.88
2022-07-30T10:52:09.740Z,6.82
2022-07-30T10:54:47.231Z,4.72
2022-07-30T10:57:23.060Z,6.00
2022-07-30T11:00:03.813Z,8.98
2022-07-30T11:02:35.211Z,6.90
2022-07-30T11:05:17.476Z,5.93
2022-07-30T11:07:47.664Z,4.15
2022-07-30T11:10:38.977Z,6.15
2022-07-30T11:13:07.110Z,5.10
2022-07-30T11:15:56.915Z,4.43
2022-07-30T11:18:26.293Z,5.75
2022-07-30T11:21:20.784Z,5.13
2022-07-30T11:23:48.163Z,3.45
2022-07-30T11:26:38.284Z,5.63
2022-07-30T11:29:33.133Z,4.65
2022-07-30T11:32:29.662Z,5.32
2022-07-30T11:35:16.212Z,6.85
2022-07-30T11:38:04.489Z,3.78
2022-07-30T11:40:40.140Z,7.13
2022-07-30T11:43:36.205Z,9.20
2022-07-30T11:46:10.915Z,6.20
2022-07-30T11:48:54.786Z,7.35
2022-07-30T11:51:21.349Z,5.88
2022-07-30T11:54:08.566Z,6.18
2022-07-30T11:56:35.101Z,6.63
2022-07-30T11:59:06.879Z,7.50
2022-07-30T12:01:34.702Z,12.10
2022-07-30T12:04:05.676Z,6.72
2022-07-30T12:06:32.491Z,7.25
2022-07-30T12:08:59.713Z,8.98
2022-07-30T12:11:35.138Z,5.60
2022-07-30T12:14:02.235Z,6.88
2022-07-30T12:16:30.736Z,5.88
2022-07-30T12:19:02.071Z,5.85
2022-07-30T12:21:28.526Z,5.55
2022-07-30T12:24:00.617Z,4.35
2022-07-30T12:28:55.061Z,5.03
2022-07-30T12:31:21.640Z,4.38
2022-07-30T12:33:48.155Z,6.82
2022-07-30T12:36:34.603Z,6.80
2022-07-30T12:39:02.561Z,7.93
2022-07-30T12:41:46.470Z,4.28
2022-07-30T12:44:37.916Z,3.30
2022-07-30T12:47:06.707Z,5.72
2022-07-30T12:49:39.430Z,4.57
2022-07-30T12:52:31.278Z,5.53
2022-07-30T12:54:59.117Z,3.75
2022-07-30T12:57:26.027Z,6.25
2022-07-30T13:00:07.328Z,5.63
2022-07-30T13:02:35.412Z,6.30
2022-07-30T13:05:10.873Z,4.85
2022-07-30T13:07:57.754Z,7.10
2022-07-30T13:10:30.021Z,5.03
2022-07-30T13:12:59.999Z,4.90
2022-07-30T13:15:26.568Z,6.45
2022-07-30T13:17:53.122Z,4.90
2022-07-30T13:20:19.676Z,5.53
2022-07-30T13:22:46.287Z,4.97
2022-07-30T13:25:12.858Z,4.20
2022-07-30T13:27:39.503Z,4.57
2022-07-30T13:30:06.461Z,6.68
2022-07-30T13:32:33.196Z,4.80
2022-07-30T13:35:01.602Z,4.85
2022-07-30T13:37:36.178Z,2.90
2022-07-30T13:40:06.035Z,4.40
2022-07-30T13:42:32.770Z,3.35
2022-07-30T13:44:59.231Z,6.18
2022-07-30T13:47:25.713Z,3.45
2022-07-30T13:49:52.153Z,4.50
2022-07-30T13:52:18.779Z,6.40
2022-07-30T13:54:45.203Z,3.75
2022-07-30T13:57:11.951Z,5.43
2022-07-30T13:59:38.468Z,3.70
2022-07-30T14:02:05.057Z,5.30
2022-07-30T14:04:31.698Z,6.05
2022-07-30T14:06:58.140Z,5.15
2022-07-30T14:09:24.720Z,6.03
2022-07-30T14:11:51.533Z,8.98
2022-07-30T14:14:18.115Z,9.55
2022-07-30T14:16:46.787Z,4.57
2022-07-30T14:19:23.543Z,17.95
2022-07-30T14:21:52.463Z,7.10
2022-07-30T14:24:18.915Z,8.75
2022-07-30T14:26:45.361Z,6.00
2022-07-30T14:29:11.857Z,5.38
2022-07-30T14:31:38.474Z,4.57
2022-07-30T14:34:05.037Z,6.68
2022-07-30T14:36:31.571Z,7.22
2022-07-30T14:38:58.033Z,4.32
2022-07-30T14:41:25.254Z,4.18
2022-07-30T14:43:51.835Z,3.70
2022-07-30T14:46:18.683Z,6.38
2022-07-30T14:48:45.410Z,4.25
2022-07-30T14:51:19.441Z,4.47
2022-07-30T14:53:50.228Z,6.47
2022-07-30T14:56:17.645Z,4.50
2022-07-30T14:58:44.354Z,5.22
2022-07-30T15:01:15.776Z,4.07
2022-07-30T15:03:43.196Z,4.97
2022-07-30T15:06:11.724Z,6.05
2022-07-30T15:08:38.604Z,4.10
2022-07-30T15:11:06.098Z,4.90
2022-07-30T15:13:34.866Z,6.70
2022-07-30T15:16:03.020Z,9.88
2022-07-30T15:18:29.458Z,9.63
2022-07-30T15:20:56.368Z,9.20
2022-07-30T15:23:22.837Z,8.10
2022-07-30T15:25:49.454Z,13.10
2022-07-30T15:28:15.896Z,9.88
2022-07-30T15:30:42.709Z,9.45
2022-07-30T15:33:09.279Z,9.18
2022-07-30T15:35:36.422Z,5.32
2022-07-30T15:38:03.466Z,7.03
2022-07-30T15:40:30.133Z,5.72
2022-07-30T15:42:56.577Z,6.28
2022-07-30T15:45:25.815Z,4.95
2022-07-30T15:47:52.283Z,8.98
2022-07-30T15:50:18.733Z,4.78
2022-07-30T15:52:45.183Z,4.93
2022-07-30T15:55:12.301Z,7.25
2022-07-30T15:57:38.736Z,6.72
2022-07-30T16:00:08.363Z,5.70
2022-07-30T16:02:35.109Z,9.15
2022-07-30T16:05:01.720Z,4.85
2022-07-30T16:07:28.429Z,8.15
2022-07-30T16:09:54.874Z,8.32
2022-07-30T16:12:21.309Z,5.43
2022-07-30T16:14:49.896Z,7.35
2022-07-30T16:17:16.502Z,3.28
2022-07-30T16:19:44.824Z,6.85
2022-07-30T16:22:12.229Z,3.13
2022-07-30T16:24:41.868Z,5.85
2022-07-30T16:27:10.028Z,4.75
2022-07-30T16:29:36.478Z,5.25
2022-07-30T16:32:03.278Z,2.30
2022-07-30T16:34:29.969Z,4.38
2022-07-30T16:36:56.383Z,6.05
2022-07-30T16:39:22.806Z,3.75
2022-07-30T16:41:49.513Z,3.75
2022-07-30T16:44:15.981Z,4.47
2022-07-30T16:46:42.430Z,4.55
2022-07-30T16:49:09.096Z,4.40
2022-07-30T16:51:36.344Z,7.30
2022-07-30T16:54:03.034Z,3.97
2022-07-30T16:56:29.768Z,6.38
2022-07-30T16:58:56.200Z,4.72
2022-07-30T17:01:22.671Z,4.68
2022-07-30T17:03:49.120Z,5.28
2022-07-30T17:06:15.555Z,6.55
2022-07-30T17:08:42.036Z,6.50
2022-07-30T17:11:09.791Z,10.30
2022-07-30T17:13:37.522Z,7.65
2022-07-30T17:16:04.054Z,10.20
2022-07-30T17:18:30.483Z,6.45
2022-07-30T17:20:56.927Z,6.30
2022-07-30T17:23:23.375Z,6.40
2022-07-30T17:25:50.168Z,6.03
2022-07-30T17:28:19.461Z,2.80
2022-07-30T17:30:50.919Z,3.97
2022-07-30T17:33:17.329Z,5.30
2022-07-30T17:35:43.813Z,11.40
2022-07-30T17:38:10.232Z,6.30
2022-07-30T17:40:36.789Z,4.13
2022-07-30T17:43:03.969Z,3.40
2022-07-30T17:45:35.151Z,4.07
2022-07-30T17:48:02.163Z,4.35
2022-07-30T17:50:29.449Z,4.07
2022-07-30T17:52:55.851Z,4.00
2022-07-30T17:55:22.305Z,4.85
2022-07-30T17:57:48.745Z,3.85
2022-07-30T18:00:15.500Z,5.35
2022-07-30T18:02:41.944Z,2.70
2022-07-30T18:05:10.496Z,4.82
2022-07-30T18:07:37.332Z,4.63
2022-07-30T18:10:04.487Z,7.25
2022-07-30T18:12:30.958Z,5.65
2022-07-30T18:14:58.898Z,4.65
2022-07-30T18:17:25.345Z,4.22
2022-07-30T18:19:51.841Z,6.15
2022-07-30T18:22:28.244Z,4.40
2022-07-30T18:24:56.056Z,4.68
2022-07-30T18:27:22.506Z,4.78
2022-07-30T18:29:48.927Z,3.88
2022-07-30T18:32:15.488Z,3.65
2022-07-30T18:34:41.894Z,4.03
2022-07-30T18:37:08.321Z,4.38
2022-07-30T18:39:34.820Z,2.92
2022-07-30T18:42:02.351Z,5.38
2022-07-30T18:44:29.112Z,4.68
2022-07-30T18:46:55.568Z,2.83
2022-07-30T18:49:36.143Z,4.25
2022-07-30T18:52:03.699Z,4.90
2022-07-30T18:54:30.351Z,4.00
2022-07-30T18:56:56.860Z,3.63
2022-07-30T18:59:23.279Z,2.22
2022-07-30T19:01:49.847Z,3.53
2022-07-30T19:04:16.258Z,3.80
2022-07-30T19:06:42.803Z,4.55
2022-07-30T19:09:16.834Z,2.80
2022-07-30T19:11:45.046Z,2.70
2022-07-30T19:14:13.001Z,4.13
2022-07-30T19:16:39.843Z,3.72
2022-07-30T19:19:06.343Z,3.58
2022-07-30T19:21:32.774Z,7.47
2022-07-30T19:23:59.212Z,2.85
2022-07-30T19:26:25.673Z,5.05
2022-07-30T19:28:52.088Z,4.78
2022-07-30T19:31:18.998Z,3.90
2022-07-30T19:33:45.424Z,3.47
2022-07-30T19:36:12.924Z,4.07
2022-07-30T19:38:41.971Z,5.05
2022-07-30T19:41:08.700Z,4.07
2022-07-30T19:43:35.218Z,5.13
2022-07-30T19:46:03.631Z,3.47
2022-07-30T19:48:32.397Z,3.03
2022-07-30T19:51:00.561Z,4.10
2022-07-30T19:53:28.065Z,4.03
2022-07-30T19:56:01.577Z,4.85
2022-07-30T19:58:28.068Z,3.50
2022-07-30T20:00:54.586Z,4.65
2022-07-30T20:03:25.959Z,3.20
2022-07-30T20:05:59.538Z,2.70
2022-07-30T20:08:27.180Z,3.47
2022-07-30T20:10:53.877Z,3.83
2022-07-30T20:13:24.457Z,3.72
2022-07-30T20:16:13.568Z,3.47
2022-07-30T20:18:40.246Z,3.00
2022-07-30T20:21:12.536Z,3.17
2022-07-30T20:23:40.987Z,2.65
2022-07-30T20:26:12.618Z,3.88
2022-07-30T20:28:43.797Z,4.57
2022-07-30T20:31:12.210Z,2.67
2022-07-30T20:33:39.311Z,4.10
2022-07-30T20:36:06.201Z,3.72
2022-07-30T20:38:37.579Z,3.17
2022-07-30T20:41:10.263Z,3.80
2022-07-30T20:43:51.592Z,3.23
2022-07-30T20:46:19.017Z,2.83
2022-07-30T20:48:45.657Z,4.82
2022-07-30T20:51:12.301Z,3.10
2022-07-30T20:53:38.766Z,6.95
2022-07-30T20:56:05.222Z,3.28
2022-07-30T20:58:31.642Z,3.25
2022-07-30T21:01:03.912Z,4.18
2022-07-30T21:03:31.692Z,2.47
2022-07-30T21:05:58.695Z,4.45
2022-07-30T21:08:26.445Z,2.30
2022-07-30T21:10:53.454Z,4.45
2022-07-30T21:13:22.258Z,2.42
2022-07-30T21:16:02.287Z,2.53
2022-07-30T21:18:37.793Z,2.63
2022-07-30T21:21:04.870Z,3.45
2022-07-30T21:23:32.074Z,3.10
2022-07-30T21:26:00.835Z,3.30
2022-07-30T21:28:29.915Z,2.30
2022-07-30T21:33:31.723Z,3.75
2022-07-30T21:35:58.788Z,2.40
2022-07-30T21:38:26.461Z,3.72
2022-07-30T21:40:53.069Z,3.50
2022-07-30T21:43:29.367Z,3.58
2022-07-30T21:45:56.996Z,5.70
2022-07-30T21:48:24.117Z,5.18
2022-07-30T21:50:50.659Z,2.97
2022-07-30T21:53:17.128Z,2.72
2022-07-30T21:55:56.713Z,2.75
2022-07-30T21:58:25.896Z,3.20
2022-07-30T22:00:54.900Z,2.72
2022-07-30T22:04:04.281Z,4.25
2022-07-30T22:06:12.408Z,3.50
2022-07-30T22:08:39.278Z,2.78
2022-07-30T22:13:54.296Z,3.60
2022-07-30T22:16:21.778Z,4.45
2022-07-30T22:18:48.265Z,3.72
2022-07-30T22:21:14.752Z,3.33
2022-07-30T22:23:54.942Z,3.72
2022-07-30T22:26:26.606Z,4.00
2022-07-30T22:28:54.429Z,4.53
2022-07-30T22:31:21.153Z,5.85
2022-07-30T22:33:47.735Z,4.63
2022-07-30T22:36:17.624Z,5.00
2022-07-30T22:38:59.043Z,3.55
2022-07-30T22:41:25.896Z,5.05
2022-07-30T22:43:55.598Z,7.43
2022-07-30T22:46:30.547Z,5.40
2022-07-30T22:48:58.099Z,5.05
2022-07-30T22:51:25.915Z,5.20
2022-07-30T22:54:12.697Z,5.80
2022-07-30T22:56:39.738Z,4.97
2022-07-30T22:59:06.542Z,5.72
2022-07-30T23:01:33.032Z,6.93
2022-07-30T23:03:59.463Z,9.15
2022-07-30T23:06:28.063Z,6.20
2022-07-30T23:08:56.582Z,6.70
2022-07-30T23:11:23.022Z,4.32
2022-07-30T23:12:28.378Z,2.28
2022-07-30T23:13:49.590Z,4.82
2022-07-30T23:16:16.122Z,6.50
2022-07-30T23:18:42.599Z,4.95
2022-07-30T23:21:09.848Z,4.95
2022-07-30T23:23:36.425Z,5.80
2022-07-30T23:26:06.408Z,6.18
2022-07-30T23:28:32.862Z,7.78
2022-07-30T23:30:59.273Z,7.70
2022-07-30T23:33:25.714Z,7.20
2022-07-30T23:35:52.729Z,9.52
2022-07-30T23:38:19.237Z,7.72
2022-07-30T23:40:46.188Z,10.05
2022-07-30T23:43:12.639Z,6.35
2022-07-30T23:45:40.262Z,8.38
2022-07-30T23:48:06.999Z,7.00
2022-07-30T23:50:33.853Z,11.55
2022-07-30T23:53:00.974Z,7.13
2022-07-30T23:55:27.451Z,9.45
2022-07-30T23:57:53.928Z,9.65
